Hicksville, Virginia
Current Conditions -  °F | °C
As of 2:52 AM on Monday 22 Dec 2014 (Local Time) from KBLF Reporting Station
Overcast Overcast  
Wind Chill: 30°   Ceiling: 600
Heat Index: 37°   Visibility: 9mi
Dew Point: 32°   Wind: 9mph
Humidity: 82%   Direction: 130°SE
Pressure: 30.1"   Gusts: NA
Location:  37.1593°N, 81.1986°W
Report Text: KBLF 220752Z AUTO 13008KT 090V160 9SM OVC006 03/00 A3010 RMK AO2 SLP198 T00280000
Loading
Personal Weather Stations






























Interactive Weather Map New forecast layout! Learn more

10-Day Weather Forecast

Advertisements
Track Severe Weather on mobile